Weather at Leros Airport

Public forecast

Using degrees Celsius for public forecast. Weather courtesy of forecast.io.

Closest aviation weather report (METAR) to Leros Airport

Closest report is Kos Airport, 27.4 nm (50.7 km) SSE. Retrieved 2021/04/17 14:20 UTC (11 minutes ago):

LGKO 171420Z 14024KT 9999 FEW018 21/10 Q1011

Closest aviation forecast (TAF) to Leros Airport

Closest forecast is Kos Airport, 27.4 nm (50.7 km) SSE. Retrieved 2021/04/17 12:15 UTC (2 hours ago):

TAF LGKO 171100Z 1712/1812 14030G40KT 9999 FEW018 SCT050 BECMG 1810/1812 16015G25KT